PWSweather.com
Personal Weather Stations
Station Observations
KWIATHEL1
Marinette County, Athelstane, WI 54104

Marinette CountyAthelstane, WI 54104

Lat: 45.4, Lon: -88.12

Elevation: 960

Station Type: OS WM-918

http://weather.athelstanewi.com

High Low Average
Temperature 63.0°F17.2°C 24.4°F-4.2°C 46.9°F8.3°C
Dew Point 30.2°F-1.0°C 14.0°F-10.0°C 23.1°F-4.9°C
Winds 12.5 mph 20.1 kmh Calm Calm 2.0 mph S3.2 kmh S
Wind Gusts 16.6 mph26.7 kmh -- 6.0 mph9.7 kmh
Humidity 67% 29% 42%
Pressure 30.28 in1025.4 mb 30.13 in1020.3 mb -
Precipitation 0.00 in0.0 mm - -
Hour Temp Dew Point Humidity Winds Wind Gusts Pressure Precip Precip Rate Daily Precip Total
12:01 AM 28.2°F-2.1°C 15.4°F-9.2°C 58% Calm Calm -- 30.25 in1024.4 mb 0.00 in0.0 mm 0.00 in/hr0.0 mm/hr 0.00 in0.0 mm
12:15 AM 28.0°F-2.2°C 15.2°F-9.3°C 58% Calm Calm -- 30.25 in1024.4 mb 0.00 in0.0 mm 0.00 in/hr0.0 mm/hr 0.00 in0.0 mm
12:31 AM 28.0°F-2.2°C 15.6°F-9.1°C 59% Calm Calm -- 30.25 in1024.4 mb 0.00 in0.0 mm 0.00 in/hr0.0 mm/hr 0.00 in0.0 mm
12:45 AM 27.5°F-2.5°C 15.1°F-9.4°C 59% Calm Calm -- 30.25 in1024.4 mb 0.00 in0.0 mm 0.00 in/hr0.0 mm/hr 0.00 in0.0 mm
01:01 AM 27.1°F-2.7°C 15.1°F-9.4°C 60% Calm Calm -- 30.25 in1024.4 mb 0.00 in0.0 mm 0.00 in/hr0.0 mm/hr 0.00 in0.0 mm
01:15 AM 26.8°F-2.9°C 14.8°F-9.6°C 60% Calm Calm -- 30.25 in1024.4 mb 0.00 in0.0 mm 0.00 in/hr0.0 mm/hr 0.00 in0.0 mm
01:31 AM 26.2°F-3.2°C 14.3°F-9.8°C 60% Calm Calm -- 30.25 in1024.4 mb 0.00 in0.0 mm 0.00 in/hr0.0 mm/hr 0.00 in0.0 mm
01:45 AM 26.1°F-3.3°C 14.1°F-9.9°C 60% Calm Calm -- 30.25 in1024.4 mb 0.00 in0.0 mm 0.00 in/hr0.0 mm/hr 0.00 in0.0 mm
02:01 AM 25.5°F-3.6°C 14.0°F-10.0°C 61% Calm Calm -- 30.25 in1024.4 mb 0.00 in0.0 mm 0.00 in/hr0.0 mm/hr 0.00 in0.0 mm
02:15 AM 24.6°F-4.1°C 14.6°F-9.7°C 65% Calm Calm -- 30.25 in1024.4 mb 0.00 in0.0 mm 0.00 in/hr0.0 mm/hr 0.00 in0.0 mm
02:31 AM 24.6°F-4.1°C 14.6°F-9.7°C 65% Calm Calm -- 30.25 in1024.4 mb 0.00 in0.0 mm 0.00 in/hr0.0 mm/hr 0.00 in0.0 mm
02:45 AM 24.4°F-4.2°C 15.1°F-9.4°C 67% Calm Calm -- 30.28 in1025.4 mb 0.00 in0.0 mm 0.00 in/hr0.0 mm/hr 0.00 in0.0 mm
03:01 AM 24.6°F-4.1°C 14.9°F-9.5°C 66% Calm Calm -- 30.25 in1024.4 mb 0.00 in0.0 mm 0.00 in/hr0.0 mm/hr 0.00 in0.0 mm
03:15 AM 24.6°F-4.1°C 14.9°F-9.5°C 66% Calm Calm -- 30.25 in1024.4 mb 0.00 in0.0 mm 0.00 in/hr0.0 mm/hr 0.00 in0.0 mm
02:46 PM 62.1°F16.7°C 29.5°F-1.4°C 29% Calm Calm 5.4 mph8.7 kmh 30.22 in1023.4 mb 0.00 in0.0 mm 0.00 in/hr0.0 mm/hr 0.00 in0.0 mm
03:01 PM 62.1°F16.7°C 29.5°F-1.4°C 29% 6.3 mph WSW10.1 kmh WSW 12.5 mph20.1 kmh 30.19 in1022.4 mb 0.00 in0.0 mm 0.00 in/hr0.0 mm/hr 0.00 in0.0 mm
03:15 PM 63.0°F17.2°C 30.2°F-1.0°C 29% 12.5 mph WSW20.1 kmh WSW 15.7 mph25.3 kmh 30.19 in1022.4 mb 0.00 in0.0 mm 0.00 in/hr0.0 mm/hr 0.00 in0.0 mm
03:31 PM 62.2°F16.8°C 29.6°F-1.3°C 29% 8.1 mph SW13.0 kmh SW 16.6 mph26.7 kmh 30.19 in1022.4 mb 0.00 in0.0 mm 0.00 in/hr0.0 mm/hr 0.00 in0.0 mm
03:45 PM 61.7°F16.5°C 29.2°F-1.6°C 29% 7.2 mph NW11.6 kmh NW 13.4 mph21.6 kmh 30.19 in1022.4 mb 0.00 in0.0 mm 0.00 in/hr0.0 mm/hr 0.00 in0.0 mm
04:01 PM 61.3°F16.3°C 28.8°F-1.8°C 29% Calm Calm 8.1 mph13.0 kmh 30.19 in1022.4 mb 0.00 in0.0 mm 0.00 in/hr0.0 mm/hr 0.00 in0.0 mm
04:15 PM 61.7°F16.5°C 29.2°F-1.6°C 29% Calm Calm 11.6 mph18.7 kmh 30.19 in1022.4 mb 0.00 in0.0 mm 0.00 in/hr0.0 mm/hr 0.00 in0.0 mm
04:31 PM 61.0°F16.1°C 28.5°F-1.9°C 29% Calm Calm 10.7 mph17.2 kmh 30.16 in1021.3 mb 0.00 in0.0 mm 0.00 in/hr0.0 mm/hr 0.00 in0.0 mm
04:45 PM 61.0°F16.1°C 28.5°F-1.9°C 29% Calm Calm -- 30.16 in1021.3 mb 0.00 in0.0 mm 0.00 in/hr0.0 mm/hr 0.00 in0.0 mm
05:01 PM 60.1°F15.6°C 27.7°F-2.4°C 29% Calm Calm 6.3 mph10.1 kmh 30.16 in1021.3 mb 0.00 in0.0 mm 0.00 in/hr0.0 mm/hr 0.00 in0.0 mm
05:16 PM 59.9°F15.5°C 28.4°F-2.0°C 30% Calm Calm 8.1 mph13.0 kmh 30.16 in1021.3 mb 0.00 in0.0 mm 0.00 in/hr0.0 mm/hr 0.00 in0.0 mm
05:31 PM 59.2°F15.1°C 27.8°F-2.3°C 30% Calm Calm 7.2 mph11.6 kmh 30.16 in1021.3 mb 0.00 in0.0 mm 0.00 in/hr0.0 mm/hr 0.00 in0.0 mm
05:46 PM 58.6°F14.8°C 27.3°F-2.6°C 30% Calm Calm 7.2 mph11.6 kmh 30.16 in1021.3 mb 0.00 in0.0 mm 0.00 in/hr0.0 mm/hr 0.00 in0.0 mm
06:01 PM 57.7°F14.3°C 27.3°F-2.6°C 31% 7.2 mph E11.6 kmh E 8.1 mph13.0 kmh 30.16 in1021.3 mb 0.00 in0.0 mm 0.00 in/hr0.0 mm/hr 0.00 in0.0 mm
06:16 PM 56.8°F13.8°C 26.6°F-3.0°C 31% Calm Calm 7.2 mph11.6 kmh 30.16 in1021.3 mb 0.00 in0.0 mm 0.00 in/hr0.0 mm/hr 0.00 in0.0 mm
06:31 PM 56.1°F13.4°C 26.7°F-2.9°C 32% 9.8 mph SE15.8 kmh SE 9.8 mph15.8 kmh 30.13 in1020.3 mb 0.00 in0.0 mm 0.00 in/hr0.0 mm/hr 0.00 in0.0 mm
06:45 PM 55.2°F12.9°C 25.1°F-3.8°C 31% 6.3 mph ENE10.1 kmh ENE 10.7 mph17.2 kmh 30.13 in1020.3 mb 0.00 in0.0 mm 0.00 in/hr0.0 mm/hr 0.00 in0.0 mm
07:01 PM 54.5°F12.5°C 25.3°F-3.7°C 32% Calm Calm 7.2 mph11.6 kmh 30.13 in1020.3 mb 0.00 in0.0 mm 0.00 in/hr0.0 mm/hr 0.00 in0.0 mm
07:16 PM 53.6°F12.0°C 24.5°F-4.2°C 32% Calm Calm -- 30.13 in1020.3 mb 0.00 in0.0 mm 0.00 in/hr0.0 mm/hr 0.00 in0.0 mm
07:31 PM 52.7°F11.5°C 23.7°F-4.6°C 32% Calm Calm -- 30.13 in1020.3 mb 0.00 in0.0 mm 0.00 in/hr0.0 mm/hr 0.00 in0.0 mm
07:46 PM 51.6°F10.9°C 22.7°F-5.2°C 32% Calm Calm -- 30.13 in1020.3 mb 0.00 in0.0 mm 0.00 in/hr0.0 mm/hr 0.00 in0.0 mm
08:01 PM 50.4°F10.2°C 21.6°F-5.8°C 32% Calm Calm -- 30.13 in1020.3 mb 0.00 in0.0 mm 0.00 in/hr0.0 mm/hr 0.00 in0.0 mm
08:15 PM 49.1°F9.5°C 21.3°F-5.9°C 33% Calm Calm -- 30.13 in1020.3 mb 0.00 in0.0 mm 0.00 in/hr0.0 mm/hr 0.00 in0.0 mm
08:31 PM 48.2°F9.0°C 20.5°F-6.4°C 33% Calm Calm -- 30.10 in1019.3 mb 0.00 in0.0 mm 0.00 in/hr0.0 mm/hr 0.00 in0.0 mm
08:45 PM 47.7°F8.7°C 21.4°F-5.9°C 35% Calm Calm -- 30.13 in1020.3 mb 0.00 in0.0 mm 0.00 in/hr0.0 mm/hr 0.00 in0.0 mm
09:01 PM 47.5°F8.6°C 21.2°F-6.0°C 35% Calm Calm -- 30.13 in1020.3 mb 0.00 in0.0 mm 0.00 in/hr0.0 mm/hr 0.00 in0.0 mm
09:15 PM 47.8°F8.8°C 22.2°F-5.4°C 36% Calm Calm -- 30.13 in1020.3 mb 0.00 in0.0 mm 0.00 in/hr0.0 mm/hr 0.00 in0.0 mm
09:31 PM 48.0°F8.9°C 22.4°F-5.3°C 36% Calm Calm -- 30.13 in1020.3 mb 0.00 in0.0 mm 0.00 in/hr0.0 mm/hr 0.00 in0.0 mm
09:45 PM 48.2°F9.0°C 22.5°F-5.3°C 36% Calm Calm -- 30.13 in1020.3 mb 0.00 in0.0 mm 0.00 in/hr0.0 mm/hr 0.00 in0.0 mm
10:01 PM 48.2°F9.0°C 22.5°F-5.3°C 36% Calm Calm -- 30.10 in1019.3 mb 0.00 in0.0 mm 0.00 in/hr0.0 mm/hr 0.00 in0.0 mm
10:15 PM 48.0°F8.9°C 22.4°F-5.3°C 36% Calm Calm -- 30.10 in1019.3 mb 0.00 in0.0 mm 0.00 in/hr0.0 mm/hr 0.00 in0.0 mm
10:31 PM 47.8°F8.8°C 22.2°F-5.4°C 36% Calm Calm -- 30.13 in1020.3 mb 0.00 in0.0 mm 0.00 in/hr0.0 mm/hr 0.00 in0.0 mm
10:45 PM 47.5°F8.6°C 21.9°F-5.6°C 36% Calm Calm -- 30.10 in1019.3 mb 0.00 in0.0 mm 0.00 in/hr0.0 mm/hr 0.00 in0.0 mm
11:01 PM 47.5°F8.6°C 21.9°F-5.6°C 36% Calm Calm -- 30.10 in1019.3 mb 0.00 in0.0 mm 0.00 in/hr0.0 mm/hr 0.00 in0.0 mm
11:15 PM 47.5°F8.6°C 21.2°F-6.0°C 35% 6.3 mph E10.1 kmh E 7.2 mph11.6 kmh 30.10 in1019.3 mb 0.00 in0.0 mm 0.00 in/hr0.0 mm/hr 0.00 in0.0 mm
11:31 PM 47.3°F8.5°C 21.1°F-6.1°C 35% Calm Calm -- 30.10 in1019.3 mb 0.00 in0.0 mm 0.00 in/hr0.0 mm/hr 0.00 in0.0 mm
11:45 PM 47.1°F8.4°C 20.9°F-6.2°C 35% Calm Calm -- 30.10 in1019.3 mb 0.00 in0.0 mm 0.00 in/hr0.0 mm/hr 0.00 in0.0 mm